Time;durP1;ratioP1;P1;durP2;ratioP2;P2;SDS_P1;SDS_P2;PMS_P1;PMS_P2;Temp;Humidity;BMP_temperature;BMP_pressure;BME280_temperature;BME280_humidity;BME280_pressure;Samples;Min_cycle;Max_cycle;Signal;HPM_P1;HPM_P2
2021/07/12 00:01:25;;;;;;;2.78;2.58;;;23.00;71.30;;;;;;5110084;28;20081;-44
2021/07/12 00:03:51;;;;;;;2.85;2.65;;;23.00;71.20;;;;;;5108677;28;20123;-45
2021/07/12 00:06:17;;;;;;;2.83;2.63;;;23.00;71.20;;;;;;5112796;28;20380;-47
2021/07/12 00:08:42;;;;;;;2.70;2.50;;;23.00;71.20;;;;;;5112829;28;20070;-46
2021/07/12 00:11:08;;;;;;;3.30;2.60;;;23.00;71.20;;;;;;5101182;28;20121;-48
2021/07/12 00:13:34;;;;;;;2.90;2.70;;;23.00;71.20;;;;;;5104930;28;20047;-42
2021/07/12 00:16:04;;;;;;;2.83;2.53;;;23.00;71.90;;;;;;5112291;28;20047;-47
2021/07/12 00:18:30;;;;;;;3.08;2.80;;;23.00;71.30;;;;;;5112299;28;20040;-48
2021/07/12 00:20:56;;;;;;;2.72;2.50;;;23.00;71.20;;;;;;5111236;28;20042;-44
2021/07/12 00:23:22;;;;;;;2.97;2.78;;;23.00;71.30;;;;;;5111537;28;20044;-44
2021/07/12 00:25:47;;;;;;;3.10;2.80;;;23.00;71.30;;;;;;5113287;28;20051;-47
2021/07/12 00:28:13;;;;;;;2.90;2.60;;;23.00;71.30;;;;;;5103674;28;20190;-46
2021/07/12 00:30:39;;;;;;;3.10;2.80;;;23.00;71.30;;;;;;5111669;28;20062;-46
2021/07/12 00:33:05;;;;;;;3.10;2.80;;;23.00;71.30;;;;;;5107992;28;20110;-48
2021/07/12 00:35:31;;;;;;;3.40;2.78;;;23.00;71.30;;;;;;5091745;28;20080;-46
2021/07/12 00:37:57;;;;;;;3.50;3.20;;;23.00;71.30;;;;;;5099195;28;20051;-48
2021/07/12 00:40:24;;;;;;;3.60;3.22;;;23.00;71.30;;;;;;5098684;28;20057;-42
2021/07/12 00:42:50;;;;;;;3.40;3.10;;;23.00;71.30;;;;;;5098997;28;20085;-43
2021/07/12 00:45:21;;;;;;;3.30;3.00;;;23.00;71.30;;;;;;5095969;28;20131;-44
2021/07/12 00:47:49;;;;;;;3.53;3.13;;;23.00;71.30;;;;;;5092306;28;20433;-48
2021/07/12 00:50:16;;;;;;;3.53;3.22;;;23.00;71.30;;;;;;5093409;28;20074;-47
2021/07/12 00:52:42;;;;;;;3.47;3.17;;;23.00;71.30;;;;;;5093242;28;20153;-47
2021/07/12 00:55:38;;;;;;;2.90;2.60;;;23.00;71.30;;;;;;5111068;28;20075;-47
2021/07/12 00:58:07;;;;;;;3.15;2.80;;;23.00;71.20;;;;;;5108970;28;20066;-47
2021/07/12 01:00:33;;;;;;;3.45;3.15;;;23.00;71.30;;;;;;5102764;28;20048;-48
2021/07/12 01:02:59;;;;;;;3.03;2.72;;;23.00;71.30;;;;;;5093477;28;20047;-45
2021/07/12 01:05:29;;;;;;;3.10;2.80;;;23.00;71.30;;;;;;5098955;28;20048;-48
2021/07/12 01:07:56;;;;;;;3.40;3.10;;;23.00;71.30;;;;;;5091726;28;20079;-47
2021/07/12 01:10:22;;;;;;;3.80;3.50;;;23.00;71.30;;;;;;5091635;28;20412;-42
2021/07/12 01:12:57;;;;;;;3.67;3.22;;;23.00;71.30;;;;;;5092458;28;20040;-48
2021/07/12 01:15:27;;;;;;;3.50;3.20;;;23.00;71.30;;;;;;5109686;28;20044;-46
2021/07/12 01:18:22;;;;;;;4.10;3.70;;;23.00;71.40;;;;;;5112430;28;20044;-48
2021/07/12 01:21:05;;;;;;;3.35;3.05;;;23.00;71.30;;;;;;5109170;28;20042;-46
2021/07/12 01:23:59;;;;;;;3.72;3.42;;;23.00;71.40;;;;;;5110552;28;20039;-47
2021/07/12 01:26:52;;;;;;;4.15;3.75;;;23.00;71.30;;;;;;5090969;28;20048;-47
2021/07/12 01:29:27;;;;;;;3.95;3.60;;;22.90;71.30;;;;;;5092616;28;20436;-45
2021/07/12 01:32:23;;;;;;;3.55;3.25;;;23.00;71.40;;;;;;5091868;28;20072;-47
2021/07/12 01:34:59;;;;;;;;;;;22.90;71.30;;;;;;5101249;28;20051;-49
2021/07/12 01:37:53;;;;;;;3.67;3.38;;;22.90;71.30;;;;;;5097782;28;19927;-46
2021/07/12 01:40:27;;;;;;;3.55;3.25;;;22.90;72.00;;;;;;5114683;28;20213;-48
2021/07/12 01:43:02;;;;;;;3.47;3.17;;;22.90;71.40;;;;;;5101649;28;20066;-48
2021/07/12 01:45:39;;;;;;;3.50;3.20;;;22.90;71.40;;;;;;5114588;28;20043;-44
2021/07/12 01:48:09;;;;;;;3.15;2.85;;;22.90;71.40;;;;;;5116066;28;20494;-44
2021/07/12 01:50:48;;;;;;;3.20;2.75;;;22.90;71.40;;;;;;5107817;28;20044;-49
2021/07/12 01:53:16;;;;;;;3.05;2.75;;;22.90;71.40;;;;;;5098295;28;20052;-46
2021/07/12 01:55:47;;;;;;;2.85;2.58;;;22.90;71.40;;;;;;5113514;28;20381;-44
2021/07/12 01:58:19;;;;;;;3.20;2.90;;;22.90;71.40;;;;;;5111650;28;20483;-47
2021/07/12 02:00:46;;;;;;;4.13;3.00;;;22.90;71.40;;;;;;5098830;28;20101;-45
2021/07/12 02:03:15;;;;;;;3.88;3.47;;;22.90;71.40;;;;;;5098501;28;20126;-45
2021/07/12 02:05:44;;;;;;;3.47;3.13;;;22.90;71.40;;;;;;5114604;28;20047;-48
2021/07/12 02:08:17;;;;;;;3.50;3.15;;;22.90;71.40;;;;;;5098887;28;20052;-49
2021/07/12 02:10:44;;;;;;;4.65;3.90;;;22.90;71.40;;;;;;5106308;28;20507;-48
2021/07/12 02:13:11;;;;;;;4.07;3.63;;;23.00;71.50;;;;;;5094626;28;20043;-44
2021/07/12 02:15:38;;;;;;;4.00;3.60;;;22.90;71.40;;;;;;5104907;28;20114;-46
2021/07/12 02:18:06;;;;;;;4.05;3.60;;;22.90;71.40;;;;;;5113734;28;20043;-47
2021/07/12 02:20:33;;;;;;;3.80;3.40;;;23.00;71.50;;;;;;5096377;28;20485;-48
2021/07/12 02:23:01;;;;;;;3.72;3.38;;;22.90;71.40;;;;;;5093821;28;20395;-46
2021/07/12 02:25:27;;;;;;;4.18;3.65;;;22.90;71.40;;;;;;5102937;28;20063;-47
2021/07/12 02:27:54;;;;;;;4.05;3.42;;;22.90;71.40;;;;;;5112465;28;20039;-48
2021/07/12 02:30:22;;;;;;;4.00;3.60;;;22.90;71.40;;;;;;5102635;28;20120;-45
2021/07/12 02:32:48;;;;;;;3.90;3.50;;;22.90;71.40;;;;;;5114447;28;20134;-45
2021/07/12 02:35:15;;;;;;;3.83;3.53;;;22.90;71.40;;;;;;5103575;28;20057;-46
2021/07/12 02:37:44;;;;;;;4.15;3.53;;;22.90;71.40;;;;;;5114033;28;20118;-46
2021/07/12 02:40:16;;;;;;;3.85;3.40;;;22.90;71.40;;;;;;5097456;28;20044;-45
2021/07/12 02:42:45;;;;;;;3.75;3.35;;;22.90;71.40;;;;;;5110911;28;20047;-46
2021/07/12 02:45:11;;;;;;;4.05;3.65;;;22.90;71.40;;;;;;5096878;28;20130;-43
2021/07/12 02:47:38;;;;;;;4.22;3.83;;;22.90;71.40;;;;;;5114332;28;20510;-45
2021/07/12 02:50:06;;;;;;;3.72;3.42;;;22.90;71.40;;;;;;5095184;28;20048;-44
2021/07/12 02:52:47;;;;;;;4.10;3.70;;;22.90;71.40;;;;;;5093023;28;20457;-45
2021/07/12 02:55:13;;;;;;;3.50;3.20;;;22.90;71.40;;;;;;5104865;28;20042;-46
2021/07/12 02:57:40;;;;;;;4.00;3.60;;;22.90;71.40;;;;;;5114293;28;20075;-43
2021/07/12 03:00:08;;;;;;;4.13;3.72;;;22.90;71.40;;;;;;5114637;28;20043;-44
2021/07/12 03:02:33;;;;;;;4.30;3.90;;;22.90;71.40;;;;;;5114200;28;20051;-47
2021/07/12 03:04:59;;;;;;;4.00;3.60;;;22.90;71.40;;;;;;5099330;28;20081;-46
2021/07/12 03:07:29;;;;;;;4.18;3.42;;;22.90;71.40;;;;;;5112907;28;20071;-46
2021/07/12 03:10:00;;;;;;;4.28;3.88;;;22.90;71.40;;;;;;5101633;28;20122;-45
2021/07/12 03:12:48;;;;;;;4.53;3.95;;;22.90;71.40;;;;;;5101638;28;20133;-44
2021/07/12 03:15:15;;;;;;;4.28;3.88;;;22.90;71.40;;;;;;5113349;28;20054;-45
2021/07/12 03:17:55;;;;;;;4.38;3.97;;;22.90;71.40;;;;;;5113325;28;20052;-46
2021/07/12 03:20:22;;;;;;;4.80;4.38;;;22.90;71.40;;;;;;5102807;28;20052;-48
2021/07/12 03:22:53;;;;;;;4.95;4.28;;;22.90;71.40;;;;;;5093844;28;20131;-44
2021/07/12 03:25:26;;;;;;;5.70;4.93;;;22.90;71.40;;;;;;5094202;28;20480;-43
2021/07/12 03:27:58;;;;;;;4.43;4.03;;;22.90;71.40;;;;;;5112225;28;20050;-45
2021/07/12 03:30:26;;;;;;;4.47;4.07;;;22.90;71.40;;;;;;5101860;28;20123;-47
2021/07/12 03:32:53;;;;;;;5.18;4.50;;;22.90;71.40;;;;;;5093608;28;20079;-44
2021/07/12 03:35:20;;;;;;;4.82;4.32;;;22.90;71.40;;;;;;5092792;28;20059;-47
2021/07/12 03:37:46;;;;;;;4.38;3.92;;;22.90;71.40;;;;;;5108865;28;20044;-44
2021/07/12 03:40:13;;;;;;;5.63;4.60;;;22.90;71.40;;;;;;5093087;28;20119;-46
2021/07/12 03:42:39;;;;;;;4.53;4.13;;;22.90;71.40;;;;;;5105620;28;20043;-47
2021/07/12 03:45:06;;;;;;;4.40;4.00;;;22.90;71.40;;;;;;5113164;28;20403;-46
2021/07/12 03:47:35;;;;;;;4.63;4.15;;;22.90;71.40;;;;;;5112577;28;20372;-45
2021/07/12 03:50:11;;;;;;;3.85;3.45;;;22.90;71.40;;;;;;5098716;28;20360;-44
2021/07/12 03:52:47;;;;;;;3.90;3.58;;;22.90;71.50;;;;;;5108129;28;20047;-47
2021/07/12 03:55:15;;;;;;;4.82;4.30;;;22.90;71.40;;;;;;5093391;28;20069;-47
2021/07/12 03:57:41;;;;;;;4.20;3.80;;;22.90;71.40;;;;;;5103303;28;20039;-45
2021/07/12 04:00:09;;;;;;;3.67;3.38;;;22.90;71.50;;;;;;5106518;28;20048;-46
2021/07/12 04:02:36;;;;;;;4.03;3.70;;;22.90;71.40;;;;;;5093968;28;20135;-43
2021/07/12 04:05:03;;;;;;;4.10;3.70;;;22.90;71.50;;;;;;5105317;28;20064;-45
2021/07/12 04:07:28;;;;;;;4.38;3.97;;;22.90;71.50;;;;;;5112426;28;20067;-46
2021/07/12 04:09:54;;;;;;;4.10;3.78;;;22.90;71.50;;;;;;5098761;28;20469;-45
2021/07/12 04:12:23;;;;;;;4.80;4.30;;;22.90;71.50;;;;;;5092982;28;20043;-44
2021/07/12 04:14:51;;;;;;;4.65;4.25;;;22.80;71.50;;;;;;5092904;28;20040;-48
2021/07/12 04:17:17;;;;;;;3.92;3.53;;;22.90;71.50;;;;;;5099360;28;20055;-42
2021/07/12 04:19:42;;;;;;;5.43;4.93;;;22.90;72.20;;;;;;5091988;28;20051;-47
2021/07/12 04:22:09;;;;;;;5.10;4.60;;;22.90;71.50;;;;;;5091753;28;20400;-44
2021/07/12 04:24:35;;;;;;;4.57;4.18;;;22.90;71.50;;;;;;5096175;28;20067;-47
2021/07/12 04:27:01;;;;;;;4.25;3.85;;;22.90;71.50;;;;;;5110741;28;20495;-46
2021/07/12 04:29:28;;;;;;;4.18;3.78;;;22.90;71.50;;;;;;5107333;28;20048;-47
2021/07/12 04:31:56;;;;;;;3.83;3.53;;;22.90;71.50;;;;;;5102749;28;20092;-44
2021/07/12 04:34:23;;;;;;;4.28;3.88;;;22.90;71.50;;;;;;5110369;28;20075;-43
2021/07/12 04:36:49;;;;;;;4.72;4.22;;;22.90;71.50;;;;;;5112620;28;20460;-44
2021/07/12 04:39:15;;;;;;;5.40;4.22;;;22.90;71.50;;;;;;5112541;28;20134;-47
2021/07/12 04:41:41;;;;;;;4.70;4.30;;;22.80;71.50;;;;;;5098765;28;20135;-46
2021/07/12 04:44:07;;;;;;;5.35;4.60;;;22.90;71.50;;;;;;5095731;28;20085;-45
2021/07/12 04:46:32;;;;;;;4.25;3.85;;;22.80;71.50;;;;;;5112967;28;20040;-47
2021/07/12 04:48:58;;;;;;;5.07;4.57;;;22.90;71.60;;;;;;5106309;28;20061;-48
2021/07/12 04:51:25;;;;;;;4.05;3.65;;;22.90;71.50;;;;;;5092559;28;20048;-45
2021/07/12 04:53:50;;;;;;;3.65;3.33;;;22.80;71.50;;;;;;5092830;28;20119;-46
2021/07/12 04:56:16;;;;;;;4.78;4.28;;;22.80;71.50;;;;;;5093450;28;20544;-46
2021/07/12 04:58:45;;;;;;;3.92;3.50;;;22.90;71.50;;;;;;5105101;28;20071;-46
2021/07/12 05:01:11;;;;;;;4.00;3.60;;;22.90;71.50;;;;;;5110862;28;20071;-44
2021/07/12 05:03:37;;;;;;;3.53;3.22;;;22.90;71.50;;;;;;5112612;28;20055;-47
2021/07/12 05:06:03;;;;;;;4.10;3.70;;;22.90;71.50;;;;;;5096049;28;20109;-46
2021/07/12 05:08:29;;;;;;;3.35;3.03;;;22.90;71.60;;;;;;5101052;28;20133;-47
2021/07/12 05:10:55;;;;;;;3.58;3.28;;;22.80;71.50;;;;;;5091612;28;20101;-46
2021/07/12 05:13:22;;;;;;;3.88;3.47;;;22.90;71.60;;;;;;5102292;28;20075;-45
2021/07/12 05:15:48;;;;;;;3.58;3.17;;;22.80;71.60;;;;;;5113949;28;20086;-46
2021/07/12 05:18:14;;;;;;;3.95;3.42;;;22.80;71.50;;;;;;5115541;28;20063;-44
2021/07/12 05:20:40;;;;;;;4.38;3.90;;;22.90;71.50;;;;;;5115792;28;20407;-47
2021/07/12 05:23:06;;;;;;;3.78;3.17;;;22.80;71.50;;;;;;5095981;28;20078;-42
2021/07/12 05:25:32;;;;;;;3.50;2.90;;;22.90;71.50;;;;;;5106175;28;20480;-47
2021/07/12 05:27:58;;;;;;;4.32;3.92;;;22.90;71.50;;;;;;5094362;28;20415;-49
2021/07/12 05:30:24;;;;;;;3.95;3.55;;;22.80;71.50;;;;;;5115007;28;20048;-45
2021/07/12 05:32:49;;;;;;;3.63;3.33;;;22.90;71.50;;;;;;5115085;28;20445;-47
2021/07/12 05:35:15;;;;;;;5.88;4.13;;;22.80;71.50;;;;;;5108264;28;20105;-46
2021/07/12 05:37:41;;;;;;;3.88;3.47;;;22.80;71.50;;;;;;5108497;28;20085;-46
2021/07/12 05:40:08;;;;;;;4.47;3.58;;;22.80;71.50;;;;;;5113799;28;20052;-47
2021/07/12 05:42:35;;;;;;;3.90;3.50;;;22.80;71.50;;;;;;5114885;28;20491;-48
2021/07/12 05:45:01;;;;;;;3.78;3.45;;;22.90;71.50;;;;;;5113284;28;20040;-47
2021/07/12 05:47:27;;;;;;;3.60;3.28;;;22.80;71.50;;;;;;5115917;28;20395;-47
2021/07/12 05:49:53;;;;;;;4.60;4.05;;;22.80;71.50;;;;;;5113780;28;20043;-49
2021/07/12 05:52:19;;;;;;;4.68;4.18;;;22.80;71.50;;;;;;5115168;28;20116;-47
2021/07/12 05:54:45;;;;;;;3.15;2.90;;;22.80;71.50;;;;;;5112838;28;20046;-47
2021/07/12 05:57:10;;;;;;;2.97;2.78;;;22.80;71.50;;;;;;5093542;28;20043;-47
2021/07/12 05:59:36;;;;;;;3.25;2.95;;;22.80;71.50;;;;;;5107120;28;20039;-47
2021/07/12 06:02:04;;;;;;;3.40;3.10;;;22.80;71.50;;;;;;5115145;28;20040;-44
2021/07/12 06:04:29;;;;;;;3.60;3.08;;;22.80;71.50;;;;;;5115199;28;20161;-45
2021/07/12 06:06:55;;;;;;;4.80;4.15;;;22.80;71.50;;;;;;5101005;28;20076;-47
2021/07/12 06:09:21;;;;;;;3.05;2.78;;;22.90;71.50;;;;;;5104385;28;20044;-45
2021/07/12 06:11:46;;;;;;;3.88;3.47;;;22.80;71.60;;;;;;5114668;28;20043;-45
2021/07/12 06:14:13;;;;;;;3.20;2.90;;;22.80;71.50;;;;;;5115784;28;20050;-48
2021/07/12 06:16:38;;;;;;;3.00;2.78;;;22.80;71.50;;;;;;5108649;28;20044;-46
2021/07/12 06:19:04;;;;;;;2.97;2.67;;;22.80;71.50;;;;;;5099737;28;20518;-45
2021/07/12 06:21:30;;;;;;;3.10;2.80;;;22.80;71.50;;;;;;5114708;28;20043;-45
2021/07/12 06:23:56;;;;;;;3.20;2.90;;;22.80;71.50;;;;;;5115493;28;20046;-47
2021/07/12 06:26:22;;;;;;;3.45;3.15;;;22.90;71.50;;;;;;5114323;28;20061;-43
2021/07/12 06:28:48;;;;;;;3.38;3.08;;;22.90;71.60;;;;;;5112977;28;20086;-45
2021/07/12 06:31:13;;;;;;;3.63;3.30;;;22.80;71.50;;;;;;5093417;28;20051;-48
2021/07/12 06:33:43;;;;;;;3.00;2.80;;;22.80;71.50;;;;;;5093619;28;20048;-53
2021/07/12 06:36:08;;;;;;;3.20;2.90;;;22.90;71.50;;;;;;5094710;28;20044;-47
2021/07/12 06:38:34;;;;;;;3.38;2.80;;;22.80;71.50;;;;;;5104411;28;20047;-44
2021/07/12 06:41:00;;;;;;;3.28;2.97;;;22.90;71.50;;;;;;5102642;28;20047;-48
2021/07/12 06:43:26;;;;;;;4.15;3.28;;;22.80;71.50;;;;;;5101264;28;20055;-43
2021/07/12 06:45:52;;;;;;;3.17;2.88;;;22.80;71.50;;;;;;5109397;28;20043;-46
2021/07/12 06:48:18;;;;;;;2.67;2.47;;;22.80;71.50;;;;;;5113902;28;20095;-52
2021/07/12 06:50:44;;;;;;;2.70;2.50;;;22.80;71.50;;;;;;5114486;28;20130;-52
2021/07/12 06:53:10;;;;;;;3.05;2.85;;;22.80;71.50;;;;;;5115010;28;20536;-43
2021/07/12 06:55:35;;;;;;;2.47;2.28;;;22.80;71.50;;;;;;5106035;28;20456;-44
2021/07/12 06:58:04;;;;;;;2.80;2.60;;;22.80;71.50;;;;;;5097854;28;20082;-53
2021/07/12 07:00:32;;;;;;;2.63;2.42;;;22.80;71.50;;;;;;5114395;28;20051;-44
2021/07/12 07:02:59;;;;;;;2.80;2.60;;;22.80;71.50;;;;;;5113751;28;20134;-42
2021/07/12 07:05:27;;;;;;;2.50;2.30;;;22.80;71.50;;;;;;5113139;28;20122;-44
2021/07/12 07:07:54;;;;;;;3.10;2.80;;;22.80;71.50;;;;;;5094213;28;20491;-42
2021/07/12 07:10:19;;;;;;;2.65;2.42;;;22.80;71.50;;;;;;5101633;28;20048;-42
2021/07/12 07:12:45;;;;;;;3.10;2.80;;;22.80;71.50;;;;;;5114003;28;20069;-44
2021/07/12 07:15:11;;;;;;;2.65;2.45;;;22.90;71.50;;;;;;5114454;28;20471;-44
2021/07/12 07:17:37;;;;;;;2.80;2.60;;;22.90;71.50;;;;;;5099800;28;20047;-43
2021/07/12 07:20:06;;;;;;;3.22;2.92;;;22.90;71.50;;;;;;5097438;28;20050;-40
2021/07/12 07:22:32;;;;;;;2.50;2.30;;;22.90;71.50;;;;;;5114177;28;20059;-43
2021/07/12 07:24:59;;;;;;;3.05;2.83;;;22.90;71.50;;;;;;5113702;28;20051;-43
2021/07/12 07:27:25;;;;;;;3.20;2.90;;;22.80;71.50;;;;;;5107295;28;20040;-44
2021/07/12 07:29:50;;;;;;;3.10;2.80;;;22.90;71.50;;;;;;5094703;28;20072;-43
2021/07/12 07:32:17;;;;;;;3.08;2.78;;;22.90;71.50;;;;;;5112984;28;20048;-43
2021/07/12 07:34:44;;;;;;;5.03;3.80;;;22.90;71.60;;;;;;5094860;28;20055;-42
2021/07/12 07:37:10;;;;;;;6.03;5.43;;;22.80;71.50;;;;;;5112998;28;20048;-37
2021/07/12 07:39:37;;;;;;;8.75;4.25;;;22.90;71.90;;;;;;5094182;28;20044;-42
2021/07/12 07:42:04;;;;;;;6.07;4.10;;;23.00;71.90;;;;;;5111253;28;20479;-42
2021/07/12 07:44:30;;;;;;;6.90;4.53;;;23.00;71.80;;;;;;5113450;28;20048;-41
2021/07/12 07:46:56;;;;;;;9.27;4.72;;;23.00;71.70;;;;;;5113512;28;20104;-41
2021/07/12 07:49:23;;;;;;;7.85;4.57;;;23.00;71.70;;;;;;5101696;28;20404;-39
2021/07/12 07:51:49;;;;;;;7.05;4.68;;;23.00;71.70;;;;;;5096584;28;20061;-39
2021/07/12 07:54:15;;;;;;;4.45;4.05;;;23.00;71.70;;;;;;5107747;28;20048;-41
2021/07/12 07:56:41;;;;;;;4.28;3.70;;;23.00;71.70;;;;;;5095574;28;20686;-38
2021/07/12 07:59:08;;;;;;;6.60;3.70;;;23.00;71.70;;;;;;5112988;28;20043;-39
2021/07/12 08:01:34;;;;;;;4.13;3.60;;;23.00;71.70;;;;;;5112244;28;20039;-42
2021/07/12 08:04:00;;;;;;;3.53;3.22;;;23.00;71.70;;;;;;5112839;28;20092;-41
2021/07/12 08:06:26;;;;;;;4.00;3.55;;;23.00;71.70;;;;;;5111506;28;20543;-41
2021/07/12 08:08:52;;;;;;;3.22;2.92;;;23.00;71.70;;;;;;5110867;28;20122;-42
2021/07/12 08:11:18;;;;;;;3.60;3.30;;;23.00;71.80;;;;;;5112712;28;20118;-45
2021/07/12 08:13:44;;;;;;;4.15;3.22;;;23.00;71.80;;;;;;5112392;28;20051;-46
2021/07/12 08:16:09;;;;;;;3.50;3.20;;;22.90;71.70;;;;;;5112672;28;20048;-47
2021/07/12 08:18:36;;;;;;;4.10;3.28;;;23.00;71.80;;;;;;5113069;28;20050;-39
2021/07/12 08:21:03;;;;;;;3.78;3.38;;;23.00;71.80;;;;;;5112422;28;20039;-45
2021/07/12 08:23:29;;;;;;;3.72;3.42;;;23.00;71.80;;;;;;5112288;28;20935;-40
2021/07/12 08:25:55;;;;;;;3.90;3.45;;;23.00;71.80;;;;;;5112594;28;20059;-40
2021/07/12 08:28:25;;;;;;;3.42;3.00;;;22.90;71.80;;;;;;5112440;28;20522;-41
2021/07/12 08:30:51;;;;;;;4.07;3.58;;;22.90;71.80;;;;;;5110904;28;20388;-40
2021/07/12 08:33:17;;;;;;;3.65;3.35;;;22.90;71.80;;;;;;5111742;28;20048;-41
2021/07/12 08:35:43;;;;;;;3.90;3.20;;;23.00;71.80;;;;;;5112121;28;20054;-39
2021/07/12 08:38:09;;;;;;;3.33;3.03;;;23.00;71.90;;;;;;5110503;28;20054;-39
2021/07/12 08:40:34;;;;;;;4.15;3.10;;;23.00;71.80;;;;;;5111960;28;20466;-41
2021/07/12 08:43:01;;;;;;;3.50;3.20;;;23.00;71.80;;;;;;5112100;28;20051;-40
2021/07/12 08:45:27;;;;;;;3.40;2.92;;;23.00;71.80;;;;;;5111893;28;20044;-45
2021/07/12 08:47:54;;;;;;;3.20;2.90;;;23.00;71.80;;;;;;5111762;28;20051;-40
2021/07/12 08:50:22;;;;;;;2.67;2.42;;;23.00;71.80;;;;;;5116392;28;20435;-41
2021/07/12 08:52:50;;;;;;;3.17;2.88;;;23.00;71.80;;;;;;5113001;28;20502;-41
2021/07/12 08:55:16;;;;;;;2.70;2.50;;;23.00;71.80;;;;;;5116598;28;20040;-40
2021/07/12 08:57:59;;;;;;;3.30;2.58;;;23.00;71.70;;;;;;5116453;28;20051;-40
2021/07/12 09:00:42;;;;;;;2.58;2.38;;;23.10;71.80;;;;;;5114970;28;20078;-42
2021/07/12 09:03:35;;;;;;;2.83;2.50;;;23.00;71.70;;;;;;5115850;28;20044;-43
2021/07/12 09:06:12;;;;;;;2.58;2.38;;;23.10;71.80;;;;;;5105997;28;20036;-40
2021/07/12 09:08:54;;;;;;;2.38;2.17;;;23.00;71.70;;;;;;5106967;28;20114;-43
2021/07/12 09:11:39;;;;;;;2.97;2.70;;;23.00;71.70;;;;;;5115444;28;20043;-41
2021/07/12 09:14:08;;;;;;;;;;;23.10;71.70;;;;;;5114797;28;20551;-44
2021/07/12 09:16:40;;;;;;;3.08;2.80;;;23.10;71.70;;;;;;5114562;28;19985;-39
2021/07/12 09:19:19;;;;;;;2.80;2.55;;;23.00;71.60;;;;;;5115464;28;20052;-43
2021/07/12 09:21:56;;;;;;;2.70;2.50;;;23.10;71.70;;;;;;5115019;28;20069;-39
2021/07/12 09:24:24;;;;;;;2.65;2.45;;;23.10;71.70;;;;;;5094568;28;20056;-40
2021/07/12 09:26:55;;;;;;;2.88;2.58;;;23.10;71.70;;;;;;5095577;28;20040;-39
2021/07/12 09:29:24;;;;;;;2.80;2.60;;;23.10;71.60;;;;;;5095230;28;20161;-45
2021/07/12 09:31:50;;;;;;;2.67;2.42;;;23.10;71.60;;;;;;5094932;28;20047;-39
2021/07/12 09:34:18;;;;;;;2.05;1.85;;;23.10;71.60;;;;;;5114826;28;20392;-40
2021/07/12 09:36:44;;;;;;;2.97;2.65;;;23.10;71.60;;;;;;5115615;28;20047;-40
2021/07/12 09:39:34;;;;;;;2.78;2.58;;;23.10;71.60;;;;;;5115120;28;20048;-42
2021/07/12 09:42:31;;;;;;;2.50;2.30;;;23.10;71.60;;;;;;5115812;28;20043;-46
2021/07/12 09:45:02;;;;;;;3.22;2.92;;;23.10;71.50;;;;;;5095421;28;20056;-44
2021/07/12 09:47:32;;;;;;;2.78;2.40;;;23.10;71.50;;;;;;5095766;28;20047;-42
2021/07/12 09:50:05;;;;;;;2.47;2.28;;;23.20;71.60;;;;;;5096057;28;20047;-41
2021/07/12 09:52:47;;;;;;;2.50;2.30;;;23.10;71.50;;;;;;5096906;28;20052;-40
2021/07/12 09:55:22;;;;;;;2.65;2.42;;;23.20;71.50;;;;;;5114667;28;20039;-42
2021/07/12 09:57:47;;;;;;;3.03;2.72;;;23.20;71.50;;;;;;5115358;28;20047;-41
2021/07/12 10:00:14;;;;;;;2.42;2.22;;;23.20;71.50;;;;;;5114355;28;20051;-42
2021/07/12 10:02:40;;;;;;;2.50;2.30;;;23.20;71.40;;;;;;5115343;28;20131;-38
2021/07/12 10:05:07;;;;;;;2.60;2.40;;;23.10;71.40;;;;;;5115592;28;20119;-42
2021/07/12 10:07:33;;;;;;;2.53;2.33;;;23.20;71.40;;;;;;5113629;28;20536;-43
2021/07/12 10:10:05;;;;;;;2.35;2.15;;;23.20;71.40;;;;;;5115330;28;20047;-41
2021/07/12 10:12:32;;;;;;;2.47;2.28;;;23.20;72.10;;;;;;5115352;28;20475;-39
2021/07/12 10:14:58;;;;;;;2.30;2.10;;;23.20;71.40;;;;;;5114520;28;20067;-43
2021/07/12 10:17:24;;;;;;;2.35;2.15;;;23.20;71.40;;;;;;5115181;28;20071;-44
2021/07/12 10:19:50;;;;;;;2.70;2.50;;;23.20;71.40;;;;;;5114057;28;20077;-42
2021/07/12 10:22:16;;;;;;;2.40;2.20;;;23.20;71.40;;;;;;5114884;28;20135;-46
2021/07/12 10:24:47;;;;;;;2.40;2.20;;;23.20;71.30;;;;;;5113762;28;20058;-44
2021/07/12 10:27:21;;;;;;;2.60;2.40;;;23.20;71.30;;;;;;5114523;28;20044;-44
2021/07/12 10:29:47;;;;;;;2.50;2.30;;;23.20;71.30;;;;;;5114311;28;20048;-43
2021/07/12 10:32:23;;;;;;;2.65;2.20;;;23.30;71.30;;;;;;5115130;28;20100;-42
2021/07/12 10:34:56;;;;;;;2.60;2.40;;;23.30;71.40;;;;;;5114362;28;20499;-41
2021/07/12 10:37:24;;;;;;;2.47;2.28;;;23.20;71.30;;;;;;5114697;28;20039;-42
2021/07/12 10:40:08;;;;;;;2.45;2.25;;;23.30;71.30;;;;;;5115038;28;20051;-48
2021/07/12 10:42:43;;;;;;;3.00;2.70;;;23.30;71.30;;;;;;5114637;28;20054;-44
2021/07/12 10:45:10;;;;;;;2.30;2.10;;;23.30;71.30;;;;;;5113218;28;20047;-43
2021/07/12 10:47:44;;;;;;;2.30;2.10;;;23.20;71.20;;;;;;5114792;28;20044;-42
2021/07/12 10:50:38;;;;;;;2.42;2.22;;;23.30;71.20;;;;;;5114075;28;20048;-40
2021/07/12 10:53:03;;;;;;;2.78;2.50;;;23.30;71.30;;;;;;5112864;28;20059;-39
2021/07/12 10:55:34;;;;;;;2.50;2.30;;;23.30;71.30;;;;;;5113573;28;20044;-42
2021/07/12 10:58:31;;;;;;;2.50;2.30;;;23.30;71.20;;;;;;5113773;28;20039;-41
2021/07/12 11:01:05;;;;;;;2.25;2.05;;;23.30;71.20;;;;;;5082864;28;20048;-44
2021/07/12 11:03:34;;;;;;;2.35;2.15;;;23.30;71.20;;;;;;5113775;28;20053;-39
2021/07/12 11:06:01;;;;;;;2.33;2.13;;;23.30;71.20;;;;;;5112255;28;20086;-44
2021/07/12 11:09:00;;;;;;;2.20;2.00;;;23.30;71.20;;;;;;5113216;28;20050;-43
2021/07/12 11:11:25;;;;;;;2.50;2.30;;;23.30;71.10;;;;;;5009765;28;20125;-39
2021/07/12 11:13:59;;;;;;;2.10;1.90;;;23.30;71.20;;;;;;5008925;28;20534;-43
2021/07/12 11:16:34;;;;;;;2.30;2.10;;;23.30;71.20;;;;;;4990875;28;20534;-42
2021/07/12 11:19:17;;;;;;;2.55;2.35;;;23.30;71.20;;;;;;4992040;28;20089;-43
2021/07/12 11:21:42;;;;;;;2.42;2.22;;;23.30;71.10;;;;;;4992421;28;20062;-41
2021/07/12 11:24:11;;;;;;;2.15;2.03;;;23.30;71.10;;;;;;4994567;28;20572;-40
2021/07/12 11:26:42;;;;;;;2.20;2.00;;;23.30;71.10;;;;;;5011366;28;20054;-40
2021/07/12 11:29:19;;;;;;;2.30;2.10;;;23.30;71.10;;;;;;5010021;28;20049;-39
2021/07/12 11:31:57;;;;;;;2.13;1.92;;;23.40;71.10;;;;;;5010701;28;20060;-40
2021/07/12 11:34:50;;;;;;;2.25;2.05;;;23.40;71.20;;;;;;5086367;27;20167;-43
2021/07/12 11:37:22;;;;;;;2.28;2.08;;;23.30;71.10;;;;;;5061927;28;20417;-47
2021/07/12 11:39:59;;;;;;;2.45;2.25;;;23.30;71.10;;;;;;5069512;28;20064;-45
2021/07/12 11:42:29;;;;;;;2.60;2.40;;;23.40;71.10;;;;;;5069202;28;20049;-43
2021/07/12 11:45:01;;;;;;;2.40;2.20;;;23.30;71.10;;;;;;5067770;28;20086;-40
2021/07/12 11:47:28;;;;;;;2.50;2.30;;;23.40;71.10;;;;;;5069547;28;20071;-42
2021/07/12 11:50:09;;;;;;;2.22;2.13;;;23.40;71.10;;;;;;5070036;28;20128;-45
2021/07/12 11:52:40;;;;;;;2.60;2.40;;;23.40;71.10;;;;;;5068800;28;20122;-40
2021/07/12 11:55:15;;;;;;;2.58;2.38;;;23.40;71.10;;;;;;5069483;28;20048;-43
2021/07/12 11:57:41;;;;;;;;;;;23.40;71.10;;;;;;5070210;28;20041;-46
2021/07/12 12:00:14;;;;;;;2.20;2.00;;;23.30;71.10;;;;;;5067679;28;19947;-44
2021/07/12 12:02:40;;;;;;;2.55;2.35;;;23.40;71.10;;;;;;5069552;28;20068;-40
2021/07/12 12:05:08;;;;;;;2.70;2.50;;;23.30;71.10;;;;;;5068472;28;20068;-39
2021/07/12 12:07:34;;;;;;;2.30;2.10;;;23.40;71.10;;;;;;5068809;28;20040;-44
2021/07/12 12:10:03;;;;;;;2.42;2.22;;;23.40;71.10;;;;;;5069353;28;20428;-46
2021/07/12 12:12:50;;;;;;;2.47;2.28;;;23.40;71.10;;;;;;5068730;28;20432;-38
2021/07/12 12:15:18;;;;;;;2.50;2.30;;;23.40;71.10;;;;;;5068454;28;20041;-44
2021/07/12 12:17:47;;;;;;;2.60;2.40;;;23.30;71.20;;;;;;5069387;28;20033;-44
2021/07/12 12:20:17;;;;;;;2.55;2.35;;;23.40;71.10;;;;;;5068493;28;20049;-42
2021/07/12 12:22:53;;;;;;;2.55;2.35;;;23.40;71.10;;;;;;5068759;28;20044;-43
2021/07/12 12:25:19;;;;;;;2.40;2.20;;;23.40;71.10;;;;;;5068605;28;20051;-42
2021/07/12 12:27:45;;;;;;;2.55;2.35;;;23.40;71.10;;;;;;5068292;28;20049;-43
2021/07/12 12:30:12;;;;;;;2.97;2.67;;;23.40;71.10;;;;;;5068484;28;20053;-47
2021/07/12 12:32:38;;;;;;;2.72;2.53;;;23.40;71.10;;;;;;5067814;28;20060;-43
2021/07/12 12:35:06;;;;;;;2.67;2.47;;;23.40;71.10;;;;;;5067928;28;20045;-38
2021/07/12 12:37:38;;;;;;;2.72;2.53;;;23.40;71.10;;;;;;5067551;28;20481;-40
2021/07/12 12:40:16;;;;;;;2.50;2.30;;;23.40;71.10;;;;;;5068527;28;20063;-45
2021/07/12 12:42:42;;;;;;;2.40;2.20;;;23.40;71.10;;;;;;5067285;28;20053;-43
2021/07/12 12:45:08;;;;;;;2.50;2.30;;;23.40;71.10;;;;;;5059583;28;20057;-44
2021/07/12 12:47:34;;;;;;;2.42;2.22;;;23.40;71.10;;;;;;5053278;28;20599;-45
2021/07/12 12:50:14;;;;;;;2.80;2.47;;;23.40;71.10;;;;;;5054747;28;20103;-43
2021/07/12 12:52:40;;;;;;;2.60;2.40;;;23.40;71.10;;;;;;5053203;28;20049;-43
2021/07/12 12:55:12;;;;;;;3.20;2.95;;;23.40;71.10;;;;;;5054670;28;20055;-44
2021/07/12 12:57:46;;;;;;;2.88;2.65;;;23.40;71.10;;;;;;5053990;28;20120;-43
2021/07/12 13:00:15;;;;;;;2.35;2.13;;;23.40;71.70;;;;;;5055294;28;20049;-45